Time,TemperatureF,DewpointF,PressureIn,WindDirection,WindDirectionDegrees,WindSpeedMPH,WindSpeedGustMPH,Humidity,HourlyPrecipIn,Conditions,Clouds,dailyrainin,SoftwareType,DateUTC
2017-10-16 00:02:00,66.6,65.1,29.80,South,189,4.9,5.0,95,0.00,,,0.00,meteobridge,2017-10-16 04:02:00,
2017-10-16 00:07:00,66.6,65.1,29.80,South,179,2.0,3.0,95,0.00,,,0.00,meteobridge,2017-10-16 04:07:00,
2017-10-16 00:12:00,66.6,65.1,29.80,South,179,0.9,3.0,95,0.00,,,0.00,meteobridge,2017-10-16 04:12:00,
2017-10-16 00:17:00,66.6,65.1,29.81,South,179,0.9,2.0,95,0.00,,,0.00,meteobridge,2017-10-16 04:17:00,
2017-10-16 00:22:00,66.7,65.3,29.81,SW,229,2.0,4.0,95,0.00,,,0.00,meteobridge,2017-10-16 04:22:00,
2017-10-16 00:28:00,66.7,65.3,29.81,SW,231,0.0,3.0,95,0.00,,,0.00,meteobridge,2017-10-16 04:28:00,
2017-10-16 00:33:00,66.7,65.3,29.82,SW,231,0.0,1.0,95,0.00,,,0.00,meteobridge,2017-10-16 04:33:00,
2017-10-16 00:38:00,66.9,65.5,29.82,SW,231,0.0,1.0,95,0.00,,,0.00,meteobridge,2017-10-16 04:38:00,
2017-10-16 00:44:00,66.9,65.5,29.82,SW,231,0.0,2.0,95,0.00,,,0.00,meteobridge,2017-10-16 04:44:00,
2017-10-16 00:49:00,66.9,65.5,29.83,SW,231,0.0,0.0,95,0.00,,,0.00,meteobridge,2017-10-16 04:49:00,
2017-10-16 00:54:00,66.9,65.5,29.83,SW,231,0.0,0.0,95,0.00,,,0.00,meteobridge,2017-10-16 04:54:00,
2017-10-16 01:00:00,66.7,65.3,29.83,SW,231,0.0,0.0,95,0.00,,,0.00,meteobridge,2017-10-16 05:00:00,
2017-10-16 01:05:00,66.7,65.3,29.83,SW,231,0.0,0.0,95,0.00,,,0.00,meteobridge,2017-10-16 05:05:00,
2017-10-16 01:11:00,66.7,65.3,29.83,SW,231,0.0,0.0,95,0.00,,,0.00,meteobridge,2017-10-16 05:11:00,
2017-10-16 01:16:00,66.7,65.3,29.82,SW,231,0.0,0.0,95,0.00,,,0.00,meteobridge,2017-10-16 05:16:00,
2017-10-16 01:22:00,66.9,65.7,29.82,SW,231,0.9,1.0,96,0.00,,,0.00,meteobridge,2017-10-16 05:22:00,
2017-10-16 01:27:00,67.1,65.8,29.82,SW,231,2.0,4.0,96,0.00,,,0.00,meteobridge,2017-10-16 05:27:00,
2017-10-16 01:33:00,67.3,66.0,29.83,SW,231,2.0,3.0,96,0.00,,,0.00,meteobridge,2017-10-16 05:33:00,
2017-10-16 01:38:00,67.5,66.0,29.83,SW,231,2.9,3.0,95,0.00,,,0.00,meteobridge,2017-10-16 05:38:00,
2017-10-16 01:43:00,67.5,66.0,29.83,WSW,239,2.9,3.0,95,0.00,,,0.00,meteobridge,2017-10-16 05:43:00,
2017-10-16 01:49:00,67.5,65.7,29.83,West,281,8.1,9.0,94,0.00,,,0.00,meteobridge,2017-10-16 05:49:00,
2017-10-16 01:54:00,67.3,65.1,29.83,SSW,192,4.0,18.0,93,0.00,,,0.00,meteobridge,2017-10-16 05:54:00,
2017-10-16 01:59:00,67.1,64.4,29.83,West,261,4.9,9.0,91,0.00,,,0.00,meteobridge,2017-10-16 05:59:00,
2017-10-16 02:04:00,66.7,63.1,29.85,WSW,245,6.0,14.0,88,0.00,,,0.00,meteobridge,2017-10-16 06:04:00,
2017-10-16 02:09:00,66.6,62.6,29.85,West,262,8.9,15.0,87,0.00,,,0.00,meteobridge,2017-10-16 06:09:00,
2017-10-16 02:14:00,66.2,62.6,29.86,WSW,256,6.0,9.0,88,0.00,,,0.00,meteobridge,2017-10-16 06:14:00,
2017-10-16 02:19:00,65.5,62.4,29.86,WSW,258,2.0,11.0,90,0.01,,,0.01,meteobridge,2017-10-16 06:19:00,
2017-10-16 02:25:00,65.1,62.4,29.86,West,260,0.9,4.0,91,0.01,,,0.01,meteobridge,2017-10-16 06:25:00,
2017-10-16 02:30:00,64.8,62.1,29.87,West,263,0.0,3.0,91,0.01,,,0.01,meteobridge,2017-10-16 06:30:00,
2017-10-16 02:35:00,64.4,62.1,29.87,WNW,300,2.0,9.0,92,0.01,,,0.01,meteobridge,2017-10-16 06:35:00,
2017-10-16 02:40:00,64.0,61.7,29.87,WNW,300,0.0,3.0,92,0.02,,,0.02,meteobridge,2017-10-16 06:40:00,
2017-10-16 02:46:00,63.9,61.5,29.85,WNW,289,0.9,5.0,92,0.02,,,0.02,meteobridge,2017-10-16 06:46:00,
2017-10-16 02:51:00,63.5,61.2,29.85,West,269,2.9,6.0,92,0.02,,,0.02,meteobridge,2017-10-16 06:51:00,
2017-10-16 02:56:00,63.5,61.2,29.85,West,269,2.0,3.0,92,0.02,,,0.02,meteobridge,2017-10-16 06:56:00,
2017-10-16 03:01:00,63.3,61.0,29.84,WSW,245,0.9,2.0,92,0.02,,,0.02,meteobridge,2017-10-16 07:01:00,
2017-10-16 03:07:00,63.3,61.0,29.84,WSW,250,0.0,3.0,92,0.02,,,0.02,meteobridge,2017-10-16 07:07:00,
2017-10-16 03:12:00,63.1,60.8,29.84,WSW,251,0.0,5.0,92,0.02,,,0.02,meteobridge,2017-10-16 07:12:00,
2017-10-16 03:17:00,63.1,60.8,29.84,WSW,251,0.9,2.0,92,0.01,,,0.02,meteobridge,2017-10-16 07:17:00,
2017-10-16 03:22:00,63.1,60.8,29.84,WSW,251,2.0,2.0,92,0.01,,,0.02,meteobridge,2017-10-16 07:22:00,
2017-10-16 03:28:00,63.3,61.3,29.84,WSW,237,0.9,4.0,93,0.01,,,0.02,meteobridge,2017-10-16 07:28:00,
2017-10-16 03:33:00,63.3,61.3,29.85,WSW,237,0.0,3.0,93,0.01,,,0.02,meteobridge,2017-10-16 07:33:00,
2017-10-16 03:38:00,63.3,61.3,29.85,SW,221,0.9,4.0,93,0.01,,,0.02,meteobridge,2017-10-16 07:38:00,
2017-10-16 03:44:00,63.3,61.3,29.85,SW,232,0.0,2.0,93,0.00,,,0.03,meteobridge,2017-10-16 07:44:00,
2017-10-16 03:49:00,63.3,61.3,29.86,SW,232,0.0,1.0,93,0.01,,,0.03,meteobridge,2017-10-16 07:49:00,
2017-10-16 03:54:00,63.0,61.0,29.86,SW,232,0.9,4.0,93,0.01,,,0.03,meteobridge,2017-10-16 07:54:00,
2017-10-16 04:00:00,62.4,60.4,29.86,SW,235,2.0,4.0,93,0.01,,,0.03,meteobridge,2017-10-16 08:00:00,
2017-10-16 04:05:00,61.7,59.4,29.86,WSW,249,0.0,0.0,92,0.02,,,0.04,meteobridge,2017-10-16 08:05:00,
2017-10-16 04:11:00,61.7,59.7,29.86,WSW,249,0.0,2.0,93,0.02,,,0.04,meteobridge,2017-10-16 08:11:00,
2017-10-16 04:16:00,61.5,59.5,29.86,WSW,249,0.0,0.0,93,0.02,,,0.04,meteobridge,2017-10-16 08:16:00,
2017-10-16 04:21:00,61.3,59.5,29.86,WSW,249,0.0,0.0,94,0.03,,,0.05,meteobridge,2017-10-16 08:21:00,
2017-10-16 04:27:00,61.3,59.5,29.86,WSW,249,0.0,0.0,94,0.03,,,0.05,meteobridge,2017-10-16 08:27:00,
2017-10-16 04:33:00,61.2,59.4,29.86,WSW,249,0.0,0.0,94,0.03,,,0.05,meteobridge,2017-10-16 08:33:00,
2017-10-16 04:38:00,61.2,59.4,29.86,WSW,249,0.0,0.0,94,0.03,,,0.05,meteobridge,2017-10-16 08:38:00,
2017-10-16 04:44:00,61.2,59.4,29.86,WSW,249,0.0,0.0,94,0.02,,,0.05,meteobridge,2017-10-16 08:44:00,
2017-10-16 04:49:00,60.8,59.4,29.85,WSW,249,0.0,0.0,95,0.02,,,0.05,meteobridge,2017-10-16 08:49:00,
2017-10-16 04:55:00,60.8,59.4,29.85,WSW,249,0.0,0.0,95,0.02,,,0.05,meteobridge,2017-10-16 08:55:00,
2017-10-16 05:00:00,60.8,59.4,29.87,WSW,249,0.0,0.0,95,0.02,,,0.05,meteobridge,2017-10-16 09:00:00,
2017-10-16 05:06:00,60.8,59.7,29.87,WSW,249,0.0,0.0,96,0.01,,,0.05,meteobridge,2017-10-16 09:06:00,
2017-10-16 05:11:00,60.6,59.5,29.87,WSW,249,0.0,0.0,96,0.01,,,0.05,meteobridge,2017-10-16 09:11:00,
2017-10-16 05:17:00,60.6,59.5,29.88,WSW,249,0.0,0.0,96,0.01,,,0.05,meteobridge,2017-10-16 09:17:00,
2017-10-16 05:23:00,60.6,59.5,29.88,WSW,249,0.0,0.0,96,0.00,,,0.05,meteobridge,2017-10-16 09:23:00,
2017-10-16 05:28:00,60.6,59.5,29.88,WSW,249,0.0,0.0,96,0.00,,,0.05,meteobridge,2017-10-16 09:28:00,
2017-10-16 05:34:00,60.4,59.4,29.88,WSW,249,0.0,0.0,96,0.00,,,0.05,meteobridge,2017-10-16 09:34:00,
2017-10-16 05:39:00,60.4,59.4,29.88,WSW,249,0.0,0.0,96,0.00,,,0.05,meteobridge,2017-10-16 09:39:00,
2017-10-16 05:44:00,60.3,59.2,29.89,WSW,249,0.0,0.0,96,0.00,,,0.05,meteobridge,2017-10-16 09:44:00,
2017-10-16 05:50:00,60.3,59.4,29.89,WSW,249,0.0,0.0,97,0.00,,,0.05,meteobridge,2017-10-16 09:50:00,
2017-10-16 05:55:00,60.3,59.4,29.89,WSW,249,0.0,0.0,97,0.00,,,0.05,meteobridge,2017-10-16 09:55:00,
2017-10-16 06:01:00,60.4,59.5,29.90,WSW,249,0.0,0.0,97,0.00,,,0.05,meteobridge,2017-10-16 10:01:00,
2017-10-16 06:07:00,60.4,59.5,29.90,WSW,249,0.9,1.0,97,0.00,,,0.05,meteobridge,2017-10-16 10:07:00,
2017-10-16 06:12:00,59.5,58.1,29.90,WSW,250,0.9,4.0,95,0.00,,,0.05,meteobridge,2017-10-16 10:12:00,
2017-10-16 06:17:00,58.3,56.8,29.92,WSW,250,0.0,3.0,95,0.00,,,0.05,meteobridge,2017-10-16 10:17:00,
2017-10-16 06:23:00,57.7,56.3,29.92,WSW,250,0.0,1.0,95,0.00,,,0.05,meteobridge,2017-10-16 10:23:00,
2017-10-16 06:28:00,57.7,56.3,29.92,WSW,250,0.0,2.0,95,0.00,,,0.05,meteobridge,2017-10-16 10:28:00,
2017-10-16 06:34:00,57.6,56.1,29.92,WNW,285,0.0,2.0,95,0.00,,,0.05,meteobridge,2017-10-16 10:34:00,
2017-10-16 06:39:00,57.2,55.4,29.92,West,275,2.0,4.0,94,0.00,,,0.05,meteobridge,2017-10-16 10:39:00,
2017-10-16 06:45:00,56.8,54.5,29.93,West,273,0.9,2.0,92,0.00,,,0.05,meteobridge,2017-10-16 10:45:00,
2017-10-16 06:50:00,56.7,54.1,29.93,SW,221,0.0,1.0,91,0.00,,,0.05,meteobridge,2017-10-16 10:50:00,
2017-10-16 06:56:00,56.5,53.2,29.93,West,269,2.0,3.0,89,0.00,,,0.05,meteobridge,2017-10-16 10:56:00,
2017-10-16 07:01:00,56.3,52.9,29.93,West,269,0.9,1.0,88,0.00,,,0.05,meteobridge,2017-10-16 11:01:00,
2017-10-16 07:06:00,56.1,52.3,29.93,West,259,0.0,4.0,87,0.00,,,0.05,meteobridge,2017-10-16 11:06:00,
2017-10-16 07:12:00,56.1,52.3,29.93,West,259,0.0,0.0,87,0.00,,,0.05,meteobridge,2017-10-16 11:12:00,
2017-10-16 07:18:00,56.1,52.0,29.94,WSW,256,0.0,1.0,86,0.00,,,0.05,meteobridge,2017-10-16 11:18:00,
2017-10-16 07:23:00,56.1,51.6,29.94,WSW,256,0.9,1.0,85,0.00,,,0.05,meteobridge,2017-10-16 11:23:00,
2017-10-16 07:28:00,56.1,50.7,29.94,WNW,284,0.0,6.0,82,0.00,,,0.05,meteobridge,2017-10-16 11:28:00,
2017-10-16 07:33:00,56.3,50.5,29.94,WNW,298,4.0,4.0,81,0.00,,,0.05,meteobridge,2017-10-16 11:33:00,
2017-10-16 07:49:00,56.8,50.0,29.95,WSW,256,0.0,4.0,78,0.00,,,0.05,meteobridge,2017-10-16 11:49:00,
2017-10-16 07:54:00,56.8,50.0,29.95,West,263,0.0,3.0,78,0.00,,,0.05,meteobridge,2017-10-16 11:54:00,
2017-10-16 07:59:00,56.8,50.0,29.95,West,263,0.0,0.0,78,0.00,,,0.05,meteobridge,2017-10-16 11:59:00,
2017-10-16 08:04:00,56.8,50.7,29.96,West,263,0.9,2.0,80,0.00,,,0.05,meteobridge,2017-10-16 12:04:00,
2017-10-16 08:09:00,56.7,50.2,29.96,NNW,330,0.0,1.0,79,0.00,,,0.05,meteobridge,2017-10-16 12:09:00,
2017-10-16 08:15:00,56.5,49.6,29.96,NW,325,0.0,0.0,78,0.00,,,0.05,meteobridge,2017-10-16 12:15:00,
2017-10-16 08:20:00,56.5,50.0,29.96,NW,325,0.0,0.0,79,0.00,,,0.05,meteobridge,2017-10-16 12:20:00,
2017-10-16 08:26:00,56.3,49.1,29.96,WSW,258,0.0,5.0,77,0.00,,,0.05,meteobridge,2017-10-16 12:26:00,
2017-10-16 08:31:00,56.1,47.3,29.98,SW,224,0.0,5.0,72,0.00,,,0.05,meteobridge,2017-10-16 12:31:00,
2017-10-16 08:37:00,56.1,46.8,29.98,WSW,257,0.9,2.0,71,0.00,,,0.05,meteobridge,2017-10-16 12:37:00,
2017-10-16 08:42:00,56.1,46.8,29.98,West,269,0.0,6.0,71,0.00,,,0.05,meteobridge,2017-10-16 12:42:00,
2017-10-16 08:48:00,55.9,46.8,29.99,WSW,245,6.0,7.0,71,0.00,,,0.05,meteobridge,2017-10-16 12:48:00,
2017-10-16 08:53:00,55.9,46.8,29.99,West,267,0.0,4.0,71,0.00,,,0.05,meteobridge,2017-10-16 12:53:00,
2017-10-16 08:58:00,55.9,46.2,29.99,West,268,0.0,2.0,70,0.00,,,0.05,meteobridge,2017-10-16 12:58:00,
2017-10-16 09:03:00,55.9,46.2,29.99,West,268,0.0,0.0,70,0.00,,,0.05,meteobridge,2017-10-16 13:03:00,
2017-10-16 09:09:00,55.9,46.8,29.99,West,273,0.0,3.0,71,0.00,,,0.05,meteobridge,2017-10-16 13:09:00,
2017-10-16 09:14:00,55.9,47.1,29.99,West,273,0.0,2.0,72,0.00,,,0.05,meteobridge,2017-10-16 13:14:00,
2017-10-16 09:20:00,55.9,47.5,29.99,West,273,0.0,0.0,73,0.00,,,0.05,meteobridge,2017-10-16 13:20:00,
2017-10-16 09:25:00,56.1,47.7,29.99,West,273,0.0,0.0,73,0.00,,,0.05,meteobridge,2017-10-16 13:25:00,
2017-10-16 09:31:00,56.1,47.7,30.01,West,271,0.0,1.0,73,0.00,,,0.05,meteobridge,2017-10-16 13:31:00,
2017-10-16 09:36:00,55.9,47.1,30.01,West,271,0.0,2.0,72,0.00,,,0.05,meteobridge,2017-10-16 13:36:00,
2017-10-16 09:41:00,55.8,47.3,30.01,West,271,0.0,0.0,73,0.00,,,0.05,meteobridge,2017-10-16 13:41:00,
2017-10-16 09:47:00,55.6,46.0,30.01,West,276,0.9,3.0,70,0.00,,,0.05,meteobridge,2017-10-16 13:47:00,
2017-10-16 09:52:00,55.4,45.3,30.01,WSW,238,2.0,7.0,69,0.00,,,0.05,meteobridge,2017-10-16 13:52:00,
2017-10-16 09:57:00,55.4,45.3,30.01,WNW,300,2.0,9.0,69,0.00,,,0.05,meteobridge,2017-10-16 13:57:00,
2017-10-16 10:02:00,55.2,44.8,30.03,West,262,0.0,4.0,68,0.00,,,0.05,meteobridge,2017-10-16 14:02:00,
2017-10-16 10:08:00,55.2,44.4,30.03,WNW,293,0.0,5.0,67,0.00,,,0.05,meteobridge,2017-10-16 14:08:00,
2017-10-16 10:13:00,55.2,44.4,30.03,WNW,293,0.0,2.0,67,0.00,,,0.05,meteobridge,2017-10-16 14:13:00,
2017-10-16 10:18:00,55.2,44.4,30.02,WNW,286,0.9,2.0,67,0.00,,,0.05,meteobridge,2017-10-16 14:18:00,
2017-10-16 10:23:00,55.4,45.3,30.02,WNW,282,0.9,2.0,69,0.00,,,0.05,meteobridge,2017-10-16 14:23:00,
2017-10-16 10:28:00,55.6,45.1,30.02,WNW,290,0.9,5.0,68,0.00,,,0.05,meteobridge,2017-10-16 14:28:00,
2017-10-16 10:33:00,55.6,44.8,30.03,WNW,286,0.9,2.0,67,0.00,,,0.05,meteobridge,2017-10-16 14:33:00,
2017-10-16 10:39:00,55.6,44.4,30.03,WSW,257,4.9,5.0,66,0.00,,,0.05,meteobridge,2017-10-16 14:39:00,
2017-10-16 10:44:00,55.6,45.1,30.03,WNW,292,0.9,4.0,68,0.00,,,0.05,meteobridge,2017-10-16 14:44:00,
2017-10-16 10:49:00,55.2,44.1,30.03,WNW,295,0.0,6.0,66,0.00,,,0.05,meteobridge,2017-10-16 14:49:00,
2017-10-16 10:55:00,55.2,44.1,30.03,NW,307,0.0,2.0,66,0.00,,,0.05,meteobridge,2017-10-16 14:55:00,
2017-10-16 11:00:00,55.2,44.1,30.03,NNE,15,2.9,5.0,66,0.00,,,0.05,meteobridge,2017-10-16 15:00:00,
2017-10-16 11:05:00,55.2,43.3,30.03,NNE,15,0.9,2.0,64,0.00,,,0.05,meteobridge,2017-10-16 15:05:00,
2017-10-16 11:10:00,55.2,43.3,30.03,NNE,15,0.9,3.0,64,0.00,,,0.05,meteobridge,2017-10-16 15:10:00,
2017-10-16 11:15:00,55.2,43.3,30.04,NNW,334,0.9,3.0,64,0.00,,,0.05,meteobridge,2017-10-16 15:15:00,
2017-10-16 11:20:00,55.0,43.5,30.04,NNW,334,0.9,2.0,65,0.00,,,0.05,meteobridge,2017-10-16 15:20:00,
2017-10-16 11:25:00,55.0,43.2,30.04,NNE,15,0.9,2.0,64,0.00,,,0.05,meteobridge,2017-10-16 15:25:00,
2017-10-16 11:31:00,55.0,43.2,30.04,SW,223,2.0,3.0,64,0.00,,,0.05,meteobridge,2017-10-16 15:31:00,
2017-10-16 11:33:00,55.2,43.7,30.04,SW,223,0.0,2.0,65,0.00,,,0.05,meteobridge,2017-10-16 15:33:00,
2017-10-16 11:39:00,55.2,43.3,30.04,SSW,213,0.0,1.0,64,0.00,,,0.05,meteobridge,2017-10-16 15:39:00,
2017-10-16 11:44:00,55.2,42.4,30.04,West,270,0.9,3.0,62,0.00,,,0.05,meteobridge,2017-10-16 15:44:00,
2017-10-16 11:49:00,55.2,42.8,30.04,WNW,284,0.9,9.0,63,0.00,,,0.05,meteobridge,2017-10-16 15:49:00,
2017-10-16 11:55:00,55.2,43.3,30.04,WSW,258,0.0,4.0,64,0.00,,,0.05,meteobridge,2017-10-16 15:55:00,
2017-10-16 12:00:00,55.2,42.8,30.05,WSW,258,2.0,2.0,63,0.00,,,0.05,meteobridge,2017-10-16 16:00:00,
2017-10-16 12:05:00,55.6,43.2,30.05,WSW,258,0.9,1.0,63,0.00,,,0.05,meteobridge,2017-10-16 16:05:00,
2017-10-16 12:10:00,56.1,44.6,30.05,West,260,0.0,2.0,65,0.00,,,0.05,meteobridge,2017-10-16 16:10:00,
2017-10-16 12:16:00,56.7,44.2,30.04,WSW,250,0.0,6.0,63,0.00,,,0.05,meteobridge,2017-10-16 16:16:00,
2017-10-16 12:21:00,56.7,43.3,30.04,North,8,0.0,3.0,61,0.00,,,0.05,meteobridge,2017-10-16 16:21:00,
2017-10-16 12:26:00,56.3,44.2,30.04,North,10,0.0,2.0,64,0.00,,,0.05,meteobridge,2017-10-16 16:26:00,
2017-10-16 12:31:00,55.9,43.9,30.04,NW,321,4.0,4.0,64,0.00,,,0.05,meteobridge,2017-10-16 16:31:00,
2017-10-16 12:36:00,55.6,43.2,30.04,SSE,161,0.9,3.0,63,0.00,,,0.05,meteobridge,2017-10-16 16:36:00,
2017-10-16 12:42:00,55.8,43.7,30.04,WSW,247,0.9,3.0,64,0.00,,,0.05,meteobridge,2017-10-16 16:42:00,
2017-10-16 12:47:00,55.8,43.3,30.02,West,277,2.0,9.0,63,0.00,,,0.05,meteobridge,2017-10-16 16:47:00,
2017-10-16 12:52:00,55.4,42.6,30.02,WSW,255,2.0,2.0,62,0.00,,,0.05,meteobridge,2017-10-16 16:52:00,
2017-10-16 12:58:00,55.6,43.5,30.02,North,6,0.9,3.0,64,0.00,,,0.05,meteobridge,2017-10-16 16:58:00,
2017-10-16 13:03:00,55.6,42.8,30.04,NW,304,0.0,3.0,62,0.00,,,0.05,meteobridge,2017-10-16 17:03:00,
2017-10-16 13:08:00,55.2,42.1,30.04,WSW,256,0.9,10.0,61,0.00,,,0.05,meteobridge,2017-10-16 17:08:00,
2017-10-16 13:13:00,55.2,42.4,30.04,NNE,28,2.0,3.0,62,0.00,,,0.05,meteobridge,2017-10-16 17:13:00,
2017-10-16 13:19:00,55.2,42.4,30.03,NNE,29,0.9,3.0,62,0.00,,,0.05,meteobridge,2017-10-16 17:19:00,
2017-10-16 13:24:00,55.2,42.8,30.03,West,270,2.0,2.0,63,0.00,,,0.05,meteobridge,2017-10-16 17:24:00,
2017-10-16 13:30:00,55.2,42.8,30.03,WNW,294,0.9,3.0,63,0.00,,,0.05,meteobridge,2017-10-16 17:30:00,
2017-10-16 13:35:00,55.2,42.4,30.03,WSW,252,0.9,7.0,62,0.00,,,0.05,meteobridge,2017-10-16 17:35:00,
2017-10-16 13:40:00,55.2,42.8,30.03,West,276,0.9,3.0,63,0.00,,,0.05,meteobridge,2017-10-16 17:40:00,
2017-10-16 13:45:00,55.6,42.8,30.04,WNW,288,0.0,6.0,62,0.00,,,0.05,meteobridge,2017-10-16 17:45:00,
2017-10-16 13:51:00,55.9,43.5,30.04,West,268,0.9,1.0,63,0.00,,,0.05,meteobridge,2017-10-16 17:51:00,
2017-10-16 13:54:00,56.3,43.9,30.04,WSW,242,2.0,6.0,63,0.00,,,0.05,meteobridge,2017-10-16 17:54:00,
2017-10-16 13:59:00,56.8,43.9,30.03,WSW,246,2.0,4.0,62,0.00,,,0.05,meteobridge,2017-10-16 17:59:00,
2017-10-16 14:05:00,57.2,43.0,30.03,WNW,287,2.9,12.0,59,0.00,,,0.05,meteobridge,2017-10-16 18:05:00,
2017-10-16 14:10:00,57.7,43.5,30.03,NW,320,0.9,4.0,59,0.00,,,0.05,meteobridge,2017-10-16 18:10:00,
2017-10-16 14:15:00,57.6,43.0,30.03,NNW,334,0.9,4.0,58,0.00,,,0.05,meteobridge,2017-10-16 18:15:00,
2017-10-16 14:21:00,57.6,43.0,30.03,SE,127,0.9,6.0,58,0.00,,,0.05,meteobridge,2017-10-16 18:21:00,
2017-10-16 14:26:00,57.7,43.0,30.03,WSW,256,0.9,3.0,58,0.00,,,0.05,meteobridge,2017-10-16 18:26:00,
2017-10-16 14:31:00,57.6,43.0,30.04,West,275,2.0,4.0,58,0.00,,,0.05,meteobridge,2017-10-16 18:31:00,
2017-10-16 14:37:00,57.4,41.9,30.04,West,277,2.0,3.0,56,0.00,,,0.05,meteobridge,2017-10-16 18:37:00,
2017-10-16 14:42:00,57.0,41.0,30.04,North,6,0.9,5.0,55,0.00,,,0.05,meteobridge,2017-10-16 18:42:00,
2017-10-16 14:47:00,56.8,42.6,30.05,WSW,241,0.9,2.0,59,0.00,,,0.05,meteobridge,2017-10-16 18:47:00,
2017-10-16 14:53:00,56.5,42.3,30.05,WSW,258,0.0,3.0,59,0.00,,,0.05,meteobridge,2017-10-16 18:53:00,
2017-10-16 14:58:00,56.3,41.7,30.05,West,272,2.0,3.0,58,0.00,,,0.05,meteobridge,2017-10-16 18:58:00,
2017-10-16 15:03:00,56.1,41.9,30.05,NW,306,2.0,5.0,59,0.00,,,0.05,meteobridge,2017-10-16 19:03:00,
2017-10-16 15:08:00,56.1,42.4,30.05,SW,231,0.9,2.0,60,0.00,,,0.05,meteobridge,2017-10-16 19:08:00,
2017-10-16 15:14:00,55.9,41.9,30.05,WSW,238,0.9,7.0,59,0.00,,,0.05,meteobridge,2017-10-16 19:14:00,
2017-10-16 15:19:00,55.9,42.3,30.06,West,276,4.9,7.0,60,0.00,,,0.05,meteobridge,2017-10-16 19:19:00,
2017-10-16 15:24:00,55.9,42.3,30.06,WNW,295,0.9,6.0,60,0.00,,,0.05,meteobridge,2017-10-16 19:24:00,
2017-10-16 15:30:00,55.8,42.1,30.06,SW,233,2.0,6.0,60,0.00,,,0.05,meteobridge,2017-10-16 19:30:00,
2017-10-16 15:35:00,55.9,41.4,30.06,WNW,286,2.0,3.0,58,0.00,,,0.05,meteobridge,2017-10-16 19:35:00,
2017-10-16 15:41:00,56.1,41.9,30.06,West,271,2.0,3.0,59,0.00,,,0.05,meteobridge,2017-10-16 19:41:00,
2017-10-16 15:46:00,56.5,43.2,30.06,SW,233,0.9,5.0,61,0.00,,,0.05,meteobridge,2017-10-16 19:46:00,
2017-10-16 15:51:00,56.7,42.1,30.06,North,7,2.9,4.0,58,0.00,,,0.05,meteobridge,2017-10-16 19:51:00,
2017-10-16 15:56:00,56.5,40.5,30.06,West,261,2.9,6.0,55,0.00,,,0.05,meteobridge,2017-10-16 19:56:00,
2017-10-16 16:02:00,56.5,41.0,30.06,WSW,239,4.0,5.0,56,0.00,,,0.05,meteobridge,2017-10-16 20:02:00,
2017-10-16 16:07:00,56.3,41.7,30.06,SW,231,0.9,3.0,58,0.00,,,0.05,meteobridge,2017-10-16 20:07:00,
2017-10-16 16:13:00,56.1,41.5,30.06,NNE,26,0.9,2.0,58,0.00,,,0.05,meteobridge,2017-10-16 20:13:00,
2017-10-16 16:18:00,56.1,40.1,30.06,West,268,0.9,1.0,55,0.00,,,0.05,meteobridge,2017-10-16 20:18:00,
2017-10-16 16:23:00,56.1,41.9,30.06,West,268,0.9,2.0,59,0.00,,,0.05,meteobridge,2017-10-16 20:23:00,
2017-10-16 16:28:00,56.3,41.7,30.06,West,268,0.0,1.0,58,0.00,,,0.05,meteobridge,2017-10-16 20:28:00,
2017-10-16 16:34:00,56.7,40.6,30.07,WSW,239,0.9,3.0,55,0.00,,,0.05,meteobridge,2017-10-16 20:34:00,
2017-10-16 16:39:00,56.8,40.5,30.07,WNW,293,0.9,3.0,54,0.00,,,0.05,meteobridge,2017-10-16 20:39:00,
2017-10-16 16:44:00,56.8,40.8,30.07,SW,235,2.0,2.0,55,0.00,,,0.05,meteobridge,2017-10-16 20:44:00,
2017-10-16 16:49:00,56.8,41.4,30.07,North,9,2.0,3.0,56,0.00,,,0.05,meteobridge,2017-10-16 20:49:00,
2017-10-16 16:55:00,56.8,39.9,30.07,WSW,243,2.0,2.0,53,0.00,,,0.05,meteobridge,2017-10-16 20:55:00,
2017-10-16 17:00:00,57.0,40.5,30.08,WSW,252,0.9,3.0,54,0.00,,,0.05,meteobridge,2017-10-16 21:00:00,
2017-10-16 17:05:00,56.8,40.5,30.08,SW,218,0.9,1.0,54,0.00,,,0.05,meteobridge,2017-10-16 21:05:00,
2017-10-16 17:11:00,56.7,40.3,30.08,SW,218,0.9,1.0,54,0.00,,,0.05,meteobridge,2017-10-16 21:11:00,
2017-10-16 17:16:00,56.1,39.7,30.08,WSW,248,0.9,1.0,54,0.00,,,0.05,meteobridge,2017-10-16 21:16:00,
2017-10-16 17:21:00,56.1,40.1,30.08,West,266,0.0,7.0,55,0.00,,,0.05,meteobridge,2017-10-16 21:21:00,
2017-10-16 17:22:00,55.9,39.9,30.08,West,266,0.0,1.0,55,0.00,,,0.05,meteobridge,2017-10-16 21:22:00,
2017-10-16 17:28:00,55.6,39.2,30.08,West,260,0.9,2.0,54,0.00,,,0.05,meteobridge,2017-10-16 21:28:00,
2017-10-16 17:33:00,55.2,38.3,30.09,NNE,15,0.0,1.0,53,0.00,,,0.05,meteobridge,2017-10-16 21:33:00,
2017-10-16 17:38:00,55.2,38.8,30.09,NNE,15,0.0,1.0,54,0.00,,,0.05,meteobridge,2017-10-16 21:38:00,
2017-10-16 17:44:00,54.9,38.5,30.09,NNW,334,0.9,3.0,54,0.00,,,0.05,meteobridge,2017-10-16 21:44:00,
2017-10-16 17:49:00,54.7,38.3,30.09,NNW,327,0.0,1.0,54,0.00,,,0.05,meteobridge,2017-10-16 21:49:00,
2017-10-16 17:54:00,54.5,39.2,30.09,NNW,327,0.0,0.0,56,0.00,,,0.05,meteobridge,2017-10-16 21:54:00,
2017-10-16 18:00:00,54.3,39.4,30.10,NNW,327,0.0,0.0,57,0.00,,,0.05,meteobridge,2017-10-16 22:00:00,
2017-10-16 18:05:00,54.0,39.6,30.10,NNW,327,0.0,1.0,58,0.00,,,0.05,meteobridge,2017-10-16 22:05:00,
2017-10-16 18:10:00,53.6,39.2,30.10,NNW,327,0.9,2.0,58,0.00,,,0.05,meteobridge,2017-10-16 22:10:00,
2017-10-16 18:16:00,53.4,38.5,30.10,NNW,327,0.0,1.0,57,0.00,,,0.05,meteobridge,2017-10-16 22:16:00,
2017-10-16 18:22:00,53.2,38.8,30.10,NNW,327,0.9,1.0,58,0.00,,,0.05,meteobridge,2017-10-16 22:22:00,
2017-10-16 18:28:00,53.1,39.2,30.10,NW,325,0.0,0.0,59,0.00,,,0.05,meteobridge,2017-10-16 22:28:00,
2017-10-16 18:33:00,52.7,39.2,30.11,NW,325,0.0,0.0,60,0.00,,,0.05,meteobridge,2017-10-16 22:33:00,
2017-10-16 18:38:00,52.2,39.2,30.11,NW,325,0.0,0.0,61,0.00,,,0.05,meteobridge,2017-10-16 22:38:00,
2017-10-16 18:43:00,51.8,39.6,30.11,NW,325,2.0,2.0,63,0.00,,,0.05,meteobridge,2017-10-16 22:43:00,
2017-10-16 18:49:00,51.3,38.3,30.12,NW,324,0.0,0.0,61,0.00,,,0.05,meteobridge,2017-10-16 22:49:00,
2017-10-16 18:54:00,51.3,38.7,30.12,NW,324,0.0,0.0,62,0.00,,,0.05,meteobridge,2017-10-16 22:54:00,
2017-10-16 18:59:00,50.9,38.8,30.13,WNW,296,4.0,5.0,63,0.00,,,0.05,meteobridge,2017-10-16 22:59:00,
2017-10-16 19:05:00,50.5,37.9,30.13,WNW,283,0.0,4.0,62,0.00,,,0.05,meteobridge,2017-10-16 23:05:00,
2017-10-16 19:10:00,50.5,37.6,30.13,WNW,283,0.0,0.0,61,0.00,,,0.05,meteobridge,2017-10-16 23:10:00,
2017-10-16 19:15:00,50.5,37.6,30.13,WNW,283,0.0,0.0,61,0.00,,,0.05,meteobridge,2017-10-16 23:15:00,
2017-10-16 19:20:00,50.4,37.8,30.13,WNW,283,0.0,0.0,62,0.00,,,0.05,meteobridge,2017-10-16 23:20:00,